sensor_id;sensor_type;location;lat;lon;timestamp;pressure;altitude;pressure_sealevel;temperature;humidity
21504;BME280;10913;51.992;9.228;2023-05-21T00:02:05;100528.16;;;15.12;92.97
21504;BME280;10913;51.992;9.228;2023-05-21T00:04:34;100521.16;;;15.08;92.96
21504;BME280;10913;51.992;9.228;2023-05-21T00:06:59;100516.78;;;15.05;93.08
21504;BME280;10913;51.992;9.228;2023-05-21T00:09:25;100521.25;;;15.03;93.27
21504;BME280;10913;51.992;9.228;2023-05-21T00:11:50;100520.38;;;15.03;93.46
21504;BME280;10913;51.992;9.228;2023-05-21T00:14:15;100517.78;;;15.00;93.71
21504;BME280;10913;51.992;9.228;2023-05-21T00:16:41;100512.56;;;14.95;94.15
21504;BME280;10913;51.992;9.228;2023-05-21T00:19:07;100508.19;;;14.93;94.63
21504;BME280;10913;51.992;9.228;2023-05-21T00:21:34;100512.72;;;14.88;94.64
21504;BME280;10913;51.992;9.228;2023-05-21T00:23:59;100504.81;;;14.83;95.30
21504;BME280;10913;51.992;9.228;2023-05-21T00:26:25;100502.22;;;14.80;95.01
21504;BME280;10913;51.992;9.228;2023-05-21T00:28:50;100499.53;;;14.81;94.31
21504;BME280;10913;51.992;9.228;2023-05-21T00:31:15;100498.69;;;14.79;95.10
21504;BME280;10913;51.992;9.228;2023-05-21T00:33:41;100494.25;;;14.80;95.21
21504;BME280;10913;51.992;9.228;2023-05-21T00:36:07;100497.81;;;14.79;95.19
21504;BME280;10913;51.992;9.228;2023-05-21T00:38:33;100489.91;;;14.77;95.33
21504;BME280;10913;51.992;9.228;2023-05-21T00:41:00;100490.81;;;14.76;94.99
21504;BME280;10913;51.992;9.228;2023-05-21T00:43:26;100487.38;;;14.70;94.97
21504;BME280;10913;51.992;9.228;2023-05-21T00:45:51;100485.66;;;14.67;95.09
21504;BME280;10913;51.992;9.228;2023-05-21T00:48:18;100488.41;;;14.63;96.22
21504;BME280;10913;51.992;9.228;2023-05-21T00:50:44;100491.22;;;14.57;96.61
21504;BME280;10913;51.992;9.228;2023-05-21T00:53:11;100488.63;;;14.52;96.96
21504;BME280;10913;51.992;9.228;2023-05-21T00:55:38;100481.66;;;14.46;96.64
21504;BME280;10913;51.992;9.228;2023-05-21T00:58:04;100484.31;;;14.46;96.48
21504;BME280;10913;51.992;9.228;2023-05-21T01:00:34;100482.56;;;14.45;96.42
21504;BME280;10913;51.992;9.228;2023-05-21T01:03:00;100477.25;;;14.44;96.69
21504;BME280;10913;51.992;9.228;2023-05-21T01:05:29;100479.03;;;14.43;96.41
21504;BME280;10913;51.992;9.228;2023-05-21T01:07:55;100472.84;;;14.43;96.13
21504;BME280;10913;51.992;9.228;2023-05-21T01:10:22;100469.28;;;14.44;95.71
21504;BME280;10913;51.992;9.228;2023-05-21T01:12:48;100473.72;;;14.43;95.92
21504;BME280;10913;51.992;9.228;2023-05-21T01:15:15;100466.69;;;14.41;95.88
21504;BME280;10913;51.992;9.228;2023-05-21T01:17:40;100463.28;;;14.33;96.79
21504;BME280;10913;51.992;9.228;2023-05-21T01:20:06;100465.13;;;14.29;96.93
21504;BME280;10913;51.992;9.228;2023-05-21T01:22:56;100466.94;;;14.27;97.07
21504;BME280;10913;51.992;9.228;2023-05-21T01:25:22;100471.34;;;14.28;97.11
21504;BME280;10913;51.992;9.228;2023-05-21T01:27:48;100465.94;;;14.33;96.50
21504;BME280;10913;51.992;9.228;2023-05-21T01:30:15;100473.00;;;14.34;97.42
21504;BME280;10913;51.992;9.228;2023-05-21T01:32:55;100467.66;;;14.35;97.35
21504;BME280;10913;51.992;9.228;2023-05-21T01:35:30;100457.00;;;14.37;96.79
21504;BME280;10913;51.992;9.228;2023-05-21T01:38:07;100467.56;;;14.40;97.10
21504;BME280;10913;51.992;9.228;2023-05-21T01:43:04;100456.91;;;14.40;97.03
21504;BME280;10913;51.992;9.228;2023-05-21T01:45:30;100451.59;;;14.40;97.95
21504;BME280;10913;51.992;9.228;2023-05-21T01:47:56;100456.91;;;14.40;98.04
21504;BME280;10913;51.992;9.228;2023-05-21T01:50:23;100458.72;;;14.41;97.84
21504;BME280;10913;51.992;9.228;2023-05-21T01:52:51;100454.28;;;14.41;97.42
21504;BME280;10913;51.992;9.228;2023-05-21T01:55:17;100453.38;;;14.42;97.39
21504;BME280;10913;51.992;9.228;2023-05-21T01:57:42;100455.13;;;14.43;96.91
21504;BME280;10913;51.992;9.228;2023-05-21T02:00:08;100453.31;;;14.45;96.75
21504;BME280;10913;51.992;9.228;2023-05-21T02:02:35;100457.75;;;14.45;97.45
21504;BME280;10913;51.992;9.228;2023-05-21T02:05:00;100454.25;;;14.43;97.94
21504;BME280;10913;51.992;9.228;2023-05-21T02:07:25;100459.59;;;14.41;98.26
21504;BME280;10913;51.992;9.228;2023-05-21T02:09:53;100453.44;;;14.38;99.05
21504;BME280;10913;51.992;9.228;2023-05-21T02:12:18;100450.94;;;14.30;100.00
21504;BME280;10913;51.992;9.228;2023-05-21T02:14:44;100455.41;;;14.27;99.96
21504;BME280;10913;51.992;9.228;2023-05-21T02:17:14;100453.66;;;14.26;99.53
21504;BME280;10913;51.992;9.228;2023-05-21T02:19:41;100448.38;;;14.24;99.52
21504;BME280;10913;51.992;9.228;2023-05-21T02:22:09;100451.97;;;14.22;99.60
21504;BME280;10913;51.992;9.228;2023-05-21T02:24:35;100446.66;;;14.22;99.26
21504;BME280;10913;51.992;9.228;2023-05-21T02:27:00;100442.25;;;14.21;99.34
21504;BME280;10913;51.992;9.228;2023-05-21T02:29:27;100447.59;;;14.19;99.31
21504;BME280;10913;51.992;9.228;2023-05-21T02:31:52;100437.00;;;14.18;99.08
21504;BME280;10913;51.992;9.228;2023-05-21T02:34:18;100437.03;;;14.16;99.11
21504;BME280;10913;51.992;9.228;2023-05-21T02:36:45;100441.50;;;14.14;99.25
21504;BME280;10913;51.992;9.228;2023-05-21T02:39:13;100436.22;;;14.12;98.93
21504;BME280;10913;51.992;9.228;2023-05-21T02:41:39;100443.31;;;14.12;98.25
21504;BME280;10913;51.992;9.228;2023-05-21T02:44:04;100449.56;;;14.09;98.69
21504;BME280;10913;51.992;9.228;2023-05-21T02:46:30;100440.72;;;14.09;98.65
21504;BME280;10913;51.992;9.228;2023-05-21T02:48:55;100439.81;;;14.08;98.92
21504;BME280;10913;51.992;9.228;2023-05-21T02:51:21;100443.38;;;14.07;99.07
21504;BME280;10913;51.992;9.228;2023-05-21T02:53:47;100436.28;;;14.08;98.64
21504;BME280;10913;51.992;9.228;2023-05-21T02:56:12;100440.72;;;14.09;98.51
21504;BME280;10913;51.992;9.228;2023-05-21T02:58:38;100437.22;;;14.05;98.73
21504;BME280;10913;51.992;9.228;2023-05-21T03:01:03;100442.56;;;14.04;98.83
21504;BME280;10913;51.992;9.228;2023-05-21T03:03:28;100438.19;;;14.01;99.53
21504;BME280;10913;51.992;9.228;2023-05-21T03:05:54;100440.94;;;13.97;100.00
21504;BME280;10913;51.992;9.228;2023-05-21T03:08:19;100449.00;;;13.92;100.00
21504;BME280;10913;51.992;9.228;2023-05-21T03:10:45;100438.41;;;13.89;100.00
21504;BME280;10913;51.992;9.228;2023-05-21T03:13:11;100435.78;;;13.88;100.00
21504;BME280;10913;51.992;9.228;2023-05-21T03:15:36;100434.03;;;13.87;100.00
21504;BME280;10913;51.992;9.228;2023-05-21T03:18:03;100430.53;;;13.85;99.97
21504;BME280;10913;51.992;9.228;2023-05-21T03:20:28;100433.22;;;13.82;100.00
21504;BME280;10913;51.992;9.228;2023-05-21T03:22:54;100434.13;;;13.80;100.00
21504;BME280;10913;51.992;9.228;2023-05-21T03:25:19;100427.16;;;13.76;100.00
21504;BME280;10913;51.992;9.228;2023-05-21T03:27:46;100424.56;;;13.72;100.00
21504;BME280;10913;51.992;9.228;2023-05-21T03:30:11;100414.88;;;13.69;100.00
21504;BME280;10913;51.992;9.228;2023-05-21T03:32:37;100417.56;;;13.66;100.00
21504;BME280;10913;51.992;9.228;2023-05-21T03:35:05;100407.84;;;13.65;100.00
21504;BME280;10913;51.992;9.228;2023-05-21T03:37:31;100422.97;;;13.62;100.00
21504;BME280;10913;51.992;9.228;2023-05-21T03:39:56;100429.28;;;13.56;100.00
21504;BME280;10913;51.992;9.228;2023-05-21T03:42:21;100426.72;;;13.49;100.00
21504;BME280;10913;51.992;9.228;2023-05-21T03:44:47;100426.81;;;13.42;100.00
21504;BME280;10913;51.992;9.228;2023-05-21T03:47:12;100431.28;;;13.40;100.00
21504;BME280;10913;51.992;9.228;2023-05-21T03:49:37;100427.78;;;13.38;100.00
21504;BME280;10913;51.992;9.228;2023-05-21T03:52:03;100428.69;;;13.37;100.00
21504;BME280;10913;51.992;9.228;2023-05-21T03:54:28;100429.56;;;13.38;100.00
21504;BME280;10913;51.992;9.228;2023-05-21T03:56:54;100431.28;;;13.40;100.00
21504;BME280;10913;51.992;9.228;2023-05-21T03:59:19;100427.75;;;13.40;100.00
21504;BME280;10913;51.992;9.228;2023-05-21T04:01:45;100425.06;;;13.41;100.00
21504;BME280;10913;51.992;9.228;2023-05-21T04:04:11;100424.16;;;13.44;100.00
21504;BME280;10913;51.992;9.228;2023-05-21T04:06:36;100423.22;;;13.47;100.00
21504;BME280;10913;51.992;9.228;2023-05-21T04:09:02;100429.38;;;13.50;100.00
21504;BME280;10913;51.992;9.228;2023-05-21T04:11:30;100438.13;;;13.55;100.00
21504;BME280;10913;51.992;9.228;2023-05-21T04:13:55;100430.16;;;13.57;100.00
21504;BME280;10913;51.992;9.228;2023-05-21T04:16:21;100438.09;;;13.57;100.00
21504;BME280;10913;51.992;9.228;2023-05-21T04:18:46;100432.78;;;13.58;100.00
21504;BME280;10913;51.992;9.228;2023-05-21T04:21:12;100439.75;;;13.62;100.00
21504;BME280;10913;51.992;9.228;2023-05-21T04:23:37;100438.78;;;13.68;100.00
21504;BME280;10913;51.992;9.228;2023-05-21T04:26:02;100428.09;;;13.72;100.00
21504;BME280;10913;51.992;9.228;2023-05-21T04:28:29;100443.00;;;13.79;100.00
21504;BME280;10913;51.992;9.228;2023-05-21T04:30:54;100439.38;;;13.85;100.00
21504;BME280;10913;51.992;9.228;2023-05-21T04:33:21;100450.78;;;13.90;100.00
21504;BME280;10913;51.992;9.228;2023-05-21T04:35:49;100455.16;;;13.94;100.00
21504;BME280;10913;51.992;9.228;2023-05-21T04:38:15;100450.66;;;13.98;100.00
21504;BME280;10913;51.992;9.228;2023-05-21T04:40:45;100442.63;;;13.99;100.00
21504;BME280;10913;51.992;9.228;2023-05-21T04:43:10;100440.88;;;14.00;100.00
21504;BME280;10913;51.992;9.228;2023-05-21T04:45:36;100445.31;;;13.99;100.00
21504;BME280;10913;51.992;9.228;2023-05-21T04:48:01;100448.00;;;13.98;100.00
21504;BME280;10913;51.992;9.228;2023-05-21T04:50:27;100447.13;;;13.97;100.00
21504;BME280;10913;51.992;9.228;2023-05-21T04:52:55;100448.88;;;13.98;100.00
21504;BME280;10913;51.992;9.228;2023-05-21T04:55:20;100447.94;;;14.01;100.00
21504;BME280;10913;51.992;9.228;2023-05-21T04:57:47;100450.53;;;14.04;100.00
21504;BME280;10913;51.992;9.228;2023-05-21T05:00:12;100456.66;;;14.09;100.00
21504;BME280;10913;51.992;9.228;2023-05-21T05:02:38;100444.16;;;14.14;100.00
21504;BME280;10913;51.992;9.228;2023-05-21T05:05:03;100444.97;;;14.18;100.00
21504;BME280;10913;51.992;9.228;2023-05-21T05:07:29;100437.78;;;14.23;100.00
21504;BME280;10913;51.992;9.228;2023-05-21T05:09:54;100426.19;;;14.27;100.00
21504;BME280;10913;51.992;9.228;2023-05-21T05:12:19;100425.22;;;14.31;100.00
21504;BME280;10913;51.992;9.228;2023-05-21T05:14:45;100427.84;;;14.34;100.00
21504;BME280;10913;51.992;9.228;2023-05-21T05:17:10;100426.88;;;14.38;100.00
21504;BME280;10913;51.992;9.228;2023-05-21T05:19:38;100424.13;;;14.42;100.00
21504;BME280;10913;51.992;9.228;2023-05-21T05:22:04;100423.19;;;14.45;100.00
21504;BME280;10913;51.992;9.228;2023-05-21T05:24:29;100420.41;;;14.51;98.76
21504;BME280;10913;51.992;9.228;2023-05-21T05:26:55;100424.75;;;14.55;99.82
21504;BME280;10913;51.992;9.228;2023-05-21T05:29:20;100423.88;;;14.56;100.00
21504;BME280;10913;51.992;9.228;2023-05-21T05:31:45;100422.06;;;14.58;100.00
21504;BME280;10913;51.992;9.228;2023-05-21T05:34:11;100417.53;;;14.60;100.00
21504;BME280;10913;51.992;9.228;2023-05-21T05:36:36;100411.28;;;14.63;100.00
21504;BME280;10913;51.992;9.228;2023-05-21T05:39:01;100414.78;;;14.65;100.00
21504;BME280;10913;51.992;9.228;2023-05-21T05:41:27;100415.63;;;14.68;99.57
21504;BME280;10913;51.992;9.228;2023-05-21T05:43:52;100421.78;;;14.70;100.00
21504;BME280;10913;51.992;9.228;2023-05-21T05:46:18;100426.13;;;14.74;100.00
21504;BME280;10913;51.992;9.228;2023-05-21T05:48:43;100419.91;;;14.75;100.00
21504;BME280;10913;51.992;9.228;2023-05-21T05:51:08;100426.09;;;14.76;99.55
21504;BME280;10913;51.992;9.228;2023-05-21T05:53:35;100424.31;;;14.76;100.00
21504;BME280;10913;51.992;9.228;2023-05-21T05:56:01;100419.84;;;14.78;100.00
21504;BME280;10913;51.992;9.228;2023-05-21T05:58:26;100418.00;;;14.80;100.00
21504;BME280;10913;51.992;9.228;2023-05-21T06:00:53;100418.84;;;14.82;100.00
21504;BME280;10913;51.992;9.228;2023-05-21T06:03:18;100417.91;;;14.85;100.00
21504;BME280;10913;51.992;9.228;2023-05-21T06:05:44;100416.06;;;14.87;99.40
21504;BME280;10913;51.992;9.228;2023-05-21T06:08:09;100418.69;;;14.90;98.83
21504;BME280;10913;51.992;9.228;2023-05-21T06:10:35;100427.41;;;14.97;99.83
21504;BME280;10913;51.992;9.228;2023-05-21T06:13:00;100429.06;;;15.01;100.00
21504;BME280;10913;51.992;9.228;2023-05-21T06:15:26;100426.28;;;15.07;99.54
21504;BME280;10913;51.992;9.228;2023-05-21T06:17:51;100425.22;;;15.14;99.66
21504;BME280;10913;51.992;9.228;2023-05-21T06:20:16;100422.47;;;15.19;100.00
21504;BME280;10913;51.992;9.228;2023-05-21T06:22:42;100416.09;;;15.24;99.78
21504;BME280;10913;51.992;9.228;2023-05-21T06:25:08;100414.22;;;15.29;99.07
21504;BME280;10913;51.992;9.228;2023-05-21T06:27:36;100419.41;;;15.35;98.94
21504;BME280;10913;51.992;9.228;2023-05-21T06:30:01;100415.72;;;15.39;96.79
21504;BME280;10913;51.992;9.228;2023-05-21T06:32:27;100421.75;;;15.47;97.05
21504;BME280;10913;51.992;9.228;2023-05-21T06:34:52;100415.38;;;15.55;98.30
21504;BME280;10913;51.992;9.228;2023-05-21T06:37:19;100414.34;;;15.60;99.07
21504;BME280;10913;51.992;9.228;2023-05-21T06:39:45;100416.81;;;15.68;97.97
21504;BME280;10913;51.992;9.228;2023-05-21T06:42:10;100414.84;;;15.76;97.81
21504;BME280;10913;51.992;9.228;2023-05-21T06:44:36;100414.59;;;15.85;97.85
21504;BME280;10913;51.992;9.228;2023-05-21T06:47:01;100420.66;;;15.92;98.31
21504;BME280;10913;51.992;9.228;2023-05-21T06:49:26;100416.06;;;15.97;97.74
21504;BME280;10913;51.992;9.228;2023-05-21T06:51:52;100423.84;;;16.04;96.60
21504;BME280;10913;51.992;9.228;2023-05-21T06:54:17;100421.91;;;16.11;97.34
21504;BME280;10913;51.992;9.228;2023-05-21T06:56:43;100423.59;;;16.13;97.35
21504;BME280;10913;51.992;9.228;2023-05-21T06:59:08;100417.28;;;16.17;97.08
21504;BME280;10913;51.992;9.228;2023-05-21T07:01:33;100417.16;;;16.20;96.77
21504;BME280;10913;51.992;9.228;2023-05-21T07:03:59;100412.75;;;16.19;97.08
21504;BME280;10913;51.992;9.228;2023-05-21T07:06:24;100407.28;;;16.24;96.50
21504;BME280;10913;51.992;9.228;2023-05-21T07:08:50;100408.97;;;16.28;95.76
21504;BME280;10913;51.992;9.228;2023-05-21T07:11:15;100404.34;;;16.35;95.93
21504;BME280;10913;51.992;9.228;2023-05-21T07:13:41;100413.81;;;16.45;95.70
21504;BME280;10913;51.992;9.228;2023-05-21T07:16:06;100412.81;;;16.49;95.50
21504;BME280;10913;51.992;9.228;2023-05-21T07:18:32;100412.66;;;16.55;95.35
21504;BME280;10913;51.992;9.228;2023-05-21T07:20:57;100417.78;;;16.61;95.43
21504;BME280;10913;51.992;9.228;2023-05-21T07:23:23;100408.72;;;16.68;94.02
21504;BME280;10913;51.992;9.228;2023-05-21T07:25:48;100413.78;;;16.77;94.25
21504;BME280;10913;51.992;9.228;2023-05-21T07:28:14;100409.22;;;16.81;94.76
21504;BME280;10913;51.992;9.228;2023-05-21T07:30:39;100410.72;;;16.90;94.61
21504;BME280;10913;51.992;9.228;2023-05-21T07:33:05;100408.59;;;17.01;93.79
21504;BME280;10913;51.992;9.228;2023-05-21T07:35:30;100411.91;;;17.09;94.05
21504;BME280;10913;51.992;9.228;2023-05-21T07:37:55;100407.22;;;17.17;93.71
21504;BME280;10913;51.992;9.228;2023-05-21T07:40:21;100410.22;;;17.34;93.73
21504;BME280;10913;51.992;9.228;2023-05-21T07:42:46;100408.72;;;17.52;93.85
21504;BME280;10913;51.992;9.228;2023-05-21T07:45:11;100402.75;;;17.72;93.16
21504;BME280;10913;51.992;9.228;2023-05-21T07:47:37;100392.47;;;17.84;92.26
21504;BME280;10913;51.992;9.228;2023-05-21T07:50:02;100394.06;;;17.90;90.77
21504;BME280;10913;51.992;9.228;2023-05-21T07:52:28;100389.16;;;18.03;90.06
21504;BME280;10913;51.992;9.228;2023-05-21T07:54:53;100386.94;;;18.15;89.45
21504;BME280;10913;51.992;9.228;2023-05-21T07:57:18;100393.72;;;18.24;89.62
21504;BME280;10913;51.992;9.228;2023-05-21T07:59:44;100385.66;;;18.25;90.10
21504;BME280;10913;51.992;9.228;2023-05-21T08:02:09;100389.81;;;18.34;89.44
21504;BME280;10913;51.992;9.228;2023-05-21T08:04:35;100383.31;;;18.40;89.00
21504;BME280;10913;51.992;9.228;2023-05-21T08:07:01;100379.63;;;18.44;88.79
21504;BME280;10913;51.992;9.228;2023-05-21T08:09:26;100384.47;;;18.57;89.00
21504;BME280;10913;51.992;9.228;2023-05-21T08:11:52;100382.44;;;18.64;88.33
21504;BME280;10913;51.992;9.228;2023-05-21T08:14:17;100385.06;;;18.66;88.02
21504;BME280;10913;51.992;9.228;2023-05-21T08:16:42;100381.44;;;18.67;88.41
21504;BME280;10913;51.992;9.228;2023-05-21T08:19:09;100385.47;;;18.78;88.51
21504;BME280;10913;51.992;9.228;2023-05-21T08:21:34;100390.34;;;18.90;87.50
21504;BME280;10913;51.992;9.228;2023-05-21T08:24:01;100388.09;;;19.02;87.07
21504;BME280;10913;51.992;9.228;2023-05-21T08:26:27;100387.75;;;19.11;86.88
21504;BME280;10913;51.992;9.228;2023-05-21T08:28:52;100385.47;;;19.22;86.70
21504;BME280;10913;51.992;9.228;2023-05-21T08:31:18;100386.75;;;19.35;86.00
21504;BME280;10913;51.992;9.228;2023-05-21T08:33:53;100383.47;;;19.49;85.90
21504;BME280;10913;51.992;9.228;2023-05-21T08:36:18;100386.13;;;19.50;85.20
21504;BME280;10913;51.992;9.228;2023-05-21T08:38:44;100386.59;;;19.60;84.93
21504;BME280;10913;51.992;9.228;2023-05-21T08:41:10;100383.22;;;19.77;84.57
21504;BME280;10913;51.992;9.228;2023-05-21T08:43:37;100384.28;;;19.93;84.37
21504;BME280;10913;51.992;9.228;2023-05-21T08:46:04;100378.13;;;20.11;84.28
21504;BME280;10913;51.992;9.228;2023-05-21T08:48:30;100380.94;;;20.08;83.18
21504;BME280;10913;51.992;9.228;2023-05-21T08:50:57;100377.84;;;20.17;83.54
21504;BME280;10913;51.992;9.228;2023-05-21T08:53:24;100379.84;;;20.33;83.32
21504;BME280;10913;51.992;9.228;2023-05-21T08:55:52;100381.91;;;20.46;83.87
21504;BME280;10913;51.992;9.228;2023-05-21T08:58:18;100383.94;;;20.60;83.79
21504;BME280;10913;51.992;9.228;2023-05-21T09:00:43;100391.31;;;20.75;83.04
21504;BME280;10913;51.992;9.228;2023-05-21T09:03:09;100393.91;;;20.95;82.33
21504;BME280;10913;51.992;9.228;2023-05-21T09:05:43;100382.28;;;21.14;81.76
21504;BME280;10913;51.992;9.228;2023-05-21T09:10:47;100387.31;;;21.39;81.15
21504;BME280;10913;51.992;9.228;2023-05-21T09:13:15;100378.00;;;21.46;80.63
21504;BME280;10913;51.992;9.228;2023-05-21T09:15:45;100386.66;;;21.70;81.84
21504;BME280;10913;51.992;9.228;2023-05-21T09:18:12;100379.88;;;21.97;80.80
21504;BME280;10913;51.992;9.228;2023-05-21T09:20:38;100375.09;;;22.19;80.79
21504;BME280;10913;51.992;9.228;2023-05-21T09:23:05;100377.50;;;22.41;79.36
21504;BME280;10913;51.992;9.228;2023-05-21T09:25:32;100371.38;;;22.55;77.10
21504;BME280;10913;51.992;9.228;2023-05-21T09:27:58;100369.66;;;22.69;77.86
21504;BME280;10913;51.992;9.228;2023-05-21T09:30:24;100376.28;;;22.80;79.00
21504;BME280;10913;51.992;9.228;2023-05-21T09:32:55;100379.84;;;22.80;78.11
21504;BME280;10913;51.992;9.228;2023-05-21T09:35:21;100374.72;;;22.76;77.68
21504;BME280;10913;51.992;9.228;2023-05-21T09:37:48;100377.81;;;22.68;77.90
21504;BME280;10913;51.992;9.228;2023-05-21T09:42:47;100374.00;;;22.72;77.63
21504;BME280;10913;51.992;9.228;2023-05-21T09:45:26;100378.53;;;22.72;78.25
21504;BME280;10913;51.992;9.228;2023-05-21T09:47:53;100379.19;;;22.59;77.78
21504;BME280;10913;51.992;9.228;2023-05-21T09:50:23;100369.72;;;22.52;79.15
21504;BME280;10913;51.992;9.228;2023-05-21T09:52:51;100377.66;;;22.55;79.87
21504;BME280;10913;51.992;9.228;2023-05-21T09:55:24;100368.25;;;22.62;81.08
21504;BME280;10913;51.992;9.228;2023-05-21T09:57:51;100372.75;;;22.62;79.88
21504;BME280;10913;51.992;9.228;2023-05-21T10:00:18;100365.13;;;22.70;79.42
21504;BME280;10913;51.992;9.228;2023-05-21T10:02:45;100366.31;;;22.82;79.59
21504;BME280;10913;51.992;9.228;2023-05-21T10:05:12;100369.28;;;22.93;78.49
21504;BME280;10913;51.992;9.228;2023-05-21T10:07:41;100363.78;;;23.10;77.81
21504;BME280;10913;51.992;9.228;2023-05-21T10:10:11;100358.38;;;23.26;76.79
21504;BME280;10913;51.992;9.228;2023-05-21T10:12:38;100356.13;;;23.34;76.89
21504;BME280;10913;51.992;9.228;2023-05-21T10:15:08;100365.00;;;23.36;77.08
21504;BME280;10913;51.992;9.228;2023-05-21T10:17:34;100361.13;;;23.40;76.93
21504;BME280;10913;51.992;9.228;2023-05-21T10:20:01;100354.34;;;23.49;75.88
21504;BME280;10913;51.992;9.228;2023-05-21T10:22:26;100354.88;;;23.55;75.57
21504;BME280;10913;51.992;9.228;2023-05-21T10:24:53;100355.00;;;23.68;75.15
21504;BME280;10913;51.992;9.228;2023-05-21T10:27:18;100342.59;;;23.80;75.81
21504;BME280;10913;51.992;9.228;2023-05-21T10:29:44;100345.63;;;23.89;75.86
21504;BME280;10913;51.992;9.228;2023-05-21T10:32:14;100351.44;;;23.97;75.22
21504;BME280;10913;51.992;9.228;2023-05-21T10:34:42;100332.41;;;23.99;75.80
21504;BME280;10913;51.992;9.228;2023-05-21T10:37:08;100334.75;;;24.05;75.89
21504;BME280;10913;51.992;9.228;2023-05-21T10:39:34;100338.81;;;24.12;75.01
21504;BME280;10913;51.992;9.228;2023-05-21T10:45:15;100334.00;;;24.17;76.33
21504;BME280;10913;51.992;9.228;2023-05-21T10:56:08;100327.31;;;24.23;75.65
21504;BME280;10913;51.992;9.228;2023-05-21T10:59:14;100325.16;;;24.29;75.64
21504;BME280;10913;51.992;9.228;2023-05-21T11:01:48;100323.69;;;24.38;75.54
21504;BME280;10913;51.992;9.228;2023-05-21T11:04:14;100320.59;;;24.44;75.02
21504;BME280;10913;51.992;9.228;2023-05-21T11:06:45;100327.47;;;24.50;74.53
21504;BME280;10913;51.992;9.228;2023-05-21T11:09:13;100324.56;;;24.53;74.53
21504;BME280;10913;51.992;9.228;2023-05-21T11:12:00;100328.22;;;24.66;74.85
21504;BME280;10913;51.992;9.228;2023-05-21T11:14:28;100320.88;;;24.68;74.40
21504;BME280;10913;51.992;9.228;2023-05-21T11:16:57;100326.56;;;24.63;73.90
21504;BME280;10913;51.992;9.228;2023-05-21T11:19:34;100320.88;;;24.68;74.30
21504;BME280;10913;51.992;9.228;2023-05-21T11:22:04;100329.56;;;24.73;74.45
21504;BME280;10913;51.992;9.228;2023-05-21T11:24:31;100320.94;;;24.81;74.58
21504;BME280;10913;51.992;9.228;2023-05-21T11:26:58;100312.72;;;24.82;74.43
21504;BME280;10913;51.992;9.228;2023-05-21T11:29:38;100307.31;;;24.82;74.77
21504;BME280;10913;51.992;9.228;2023-05-21T11:32:05;100303.44;;;24.86;75.38
21504;BME280;10913;51.992;9.228;2023-05-21T11:34:59;100305.59;;;24.81;75.48
21504;BME280;10913;51.992;9.228;2023-05-21T11:37:27;100299.72;;;24.75;75.28
21504;BME280;10913;51.992;9.228;2023-05-21T11:40:01;100301.84;;;24.69;76.17
21504;BME280;10913;51.992;9.228;2023-05-21T11:42:39;100309.16;;;24.82;76.66
21504;BME280;10913;51.992;9.228;2023-05-21T11:45:07;100310.78;;;24.84;76.96
21504;BME280;10913;51.992;9.228;2023-05-21T11:47:32;100307.88;;;24.87;75.81
21504;BME280;10913;51.992;9.228;2023-05-21T11:50:00;100300.19;;;24.81;76.99
21504;BME280;10913;51.992;9.228;2023-05-21T11:52:28;100305.19;;;24.87;76.69
21504;BME280;10913;51.992;9.228;2023-05-21T11:54:53;100307.44;;;24.95;76.46
21504;BME280;10913;51.992;9.228;2023-05-21T11:57:22;100303.75;;;24.96;77.00
21504;BME280;10913;51.992;9.228;2023-05-21T11:59:49;100303.44;;;25.00;77.42
21504;BME280;10913;51.992;9.228;2023-05-21T12:02:20;100301.50;;;25.02;77.88
21504;BME280;10913;51.992;9.228;2023-05-21T12:04:47;100309.22;;;25.09;77.75
21504;BME280;10913;51.992;9.228;2023-05-21T12:07:13;100308.56;;;24.91;74.20
21504;BME280;10913;51.992;9.228;2023-05-21T12:09:44;100306.59;;;24.66;75.61
21504;BME280;10913;51.992;9.228;2023-05-21T12:12:12;100301.78;;;24.57;75.39
21504;BME280;10913;51.992;9.228;2023-05-21T12:14:38;100297.50;;;24.67;74.94
21504;BME280;10913;51.992;9.228;2023-05-21T12:17:05;100290.94;;;24.71;75.38
21504;BME280;10913;51.992;9.228;2023-05-21T12:19:32;100288.16;;;24.72;76.26
21504;BME280;10913;51.992;9.228;2023-05-21T12:22:05;100283.63;;;24.73;75.83
21504;BME280;10913;51.992;9.228;2023-05-21T12:24:31;100285.66;;;24.69;76.84
21504;BME280;10913;51.992;9.228;2023-05-21T12:26:58;100282.16;;;24.67;76.20
21504;BME280;10913;51.992;9.228;2023-05-21T12:29:32;100281.59;;;24.77;76.69
21504;BME280;10913;51.992;9.228;2023-05-21T12:32:02;100273.63;;;24.88;76.62
21504;BME280;10913;51.992;9.228;2023-05-21T12:37:04;100277.28;;;24.87;76.01
21504;BME280;10913;51.992;9.228;2023-05-21T12:39:31;100273.31;;;24.92;75.91
21504;BME280;10913;51.992;9.228;2023-05-21T12:41:57;100272.19;;;24.96;75.60
21504;BME280;10913;51.992;9.228;2023-05-21T12:44:22;100276.41;;;24.86;76.50
21504;BME280;10913;51.992;9.228;2023-05-21T12:46:48;100278.44;;;24.83;76.82
21504;BME280;10913;51.992;9.228;2023-05-21T12:49:38;100276.91;;;24.79;76.16
21504;BME280;10913;51.992;9.228;2023-05-21T12:52:09;100274.75;;;24.71;76.15
21504;BME280;10913;51.992;9.228;2023-05-21T12:54:36;100277.44;;;24.71;77.15
21504;BME280;10913;51.992;9.228;2023-05-21T12:57:22;100268.63;;;24.82;78.35
21504;BME280;10913;51.992;9.228;2023-05-21T12:59:53;100275.44;;;24.87;78.07
21504;BME280;10913;51.992;9.228;2023-05-21T13:02:24;100271.97;;;24.85;76.10
21504;BME280;10913;51.992;9.228;2023-05-21T13:05:10;100274.69;;;24.85;76.12
21504;BME280;10913;51.992;9.228;2023-05-21T13:07:37;100278.41;;;24.70;76.69
21504;BME280;10913;51.992;9.228;2023-05-21T13:10:03;100273.09;;;24.68;76.89